In Rescue
 
Open Full Screen Window  High Contrast Mode
Wind Gusting 00 knots
06
May 20, 2019 6:25 PM GMT
Weather Information
Wind Direction
  180 °
Wind Speed
  06 kt (7 mph)
Wind Gust
  00 kt (0 mph)
Altimeter
29.65 in
Visibility
10 SM
Temperature
23° C
73° F
Dewpoint
18° C
64° F
Humidity
74%
1hr Rain Fall
00.00 in.
24hr Rain Fall
01.33 in.
Sky Condition
Overcast @ 8,000 ft
Broken @ 3,300 ft
Scattered @ 2,800 ft
VFR

METAR K6B0 201825Z AUTO 18006KT 10SM SCT028 BKN033 OVC080 23/18 A2965 RMK AO2 T02320175

FAA Disclaimer: The data displayed is for advisory purposes only and is not to be used for flight planning or operations.